createdAt,value
2018-05-31T00:01:04.591Z,99.90
2018-05-31T00:03:34.012Z,99.90
2018-05-31T00:06:04.190Z,99.90
2018-05-31T00:08:33.598Z,99.90
2018-05-31T00:11:02.598Z,99.90
2018-05-31T00:13:31.996Z,99.90
2018-05-31T00:16:01.242Z,99.90
2018-05-31T00:18:29.849Z,99.90
2018-05-31T00:20:58.491Z,99.90
2018-05-31T00:23:28.074Z,99.90
2018-05-31T00:25:56.890Z,99.90
2018-05-31T00:28:25.705Z,99.90
2018-05-31T00:30:54.500Z,99.90
2018-05-31T00:33:23.748Z,99.90
2018-05-31T00:35:53.048Z,99.90
2018-05-31T00:38:22.470Z,99.90
2018-05-31T00:40:51.095Z,99.90
2018-05-31T00:43:19.895Z,99.90
2018-05-31T00:45:48.705Z,99.90
2018-05-31T00:48:17.255Z,99.90
2018-05-31T00:50:46.042Z,99.90
2018-05-31T00:53:14.883Z,99.90
2018-05-31T00:56:02.175Z,99.90
2018-05-31T00:58:31.151Z,99.90
2018-05-31T01:00:59.732Z,99.90
2018-05-31T01:03:29.407Z,99.90
2018-05-31T01:05:58.312Z,99.90
2018-05-31T01:08:27.133Z,99.90
2018-05-31T01:10:55.894Z,99.90
2018-05-31T01:13:25.654Z,99.90
2018-05-31T01:15:54.473Z,99.90
2018-05-31T01:18:23.427Z,99.90
2018-05-31T01:20:52.361Z,99.90
2018-05-31T01:23:23.044Z,99.90
2018-05-31T01:25:53.356Z,99.90
2018-05-31T01:28:22.208Z,99.90
2018-05-31T01:30:51.016Z,99.90
2018-05-31T01:33:19.928Z,99.90
2018-05-31T01:35:48.628Z,99.90
2018-05-31T01:38:32.588Z,99.90
2018-05-31T01:41:02.125Z,99.90
2018-05-31T01:43:31.561Z,99.90
2018-05-31T01:46:00.240Z,99.90
2018-05-31T01:48:28.987Z,99.90
2018-05-31T01:50:59.143Z,99.90
2018-05-31T01:53:28.609Z,99.90
2018-05-31T01:55:58.191Z,99.90
2018-05-31T01:58:28.159Z,99.90
2018-05-31T02:00:56.928Z,99.90
2018-05-31T02:03:26.474Z,99.90
2018-05-31T02:05:55.928Z,99.90
2018-05-31T02:08:25.608Z,99.90
2018-05-31T02:10:55.101Z,99.90
2018-05-31T02:13:23.817Z,99.90
2018-05-31T02:15:52.822Z,99.90
2018-05-31T02:18:21.571Z,99.90
2018-05-31T02:20:50.341Z,99.90
2018-05-31T02:23:19.150Z,99.90
2018-05-31T02:25:48.699Z,99.90
2018-05-31T02:28:18.292Z,99.90
2018-05-31T02:30:46.933Z,99.90
2018-05-31T02:33:15.708Z,99.90
2018-05-31T02:35:44.260Z,99.90
2018-05-31T02:38:13.653Z,99.90
2018-05-31T02:40:43.134Z,99.90
2018-05-31T02:43:12.469Z,99.90
2018-05-31T02:45:41.801Z,99.90
2018-05-31T02:48:10.381Z,99.90
2018-05-31T02:50:39.739Z,99.90
2018-05-31T02:53:08.531Z,99.90
2018-05-31T02:55:37.369Z,99.90
2018-05-31T02:58:06.380Z,99.90
2018-05-31T03:00:35.068Z,99.90
2018-05-31T03:03:03.639Z,99.90
2018-05-31T03:05:33.120Z,99.90
2018-05-31T03:08:02.344Z,99.90
2018-05-31T03:10:31.659Z,99.90
2018-05-31T03:13:00.665Z,99.90
2018-05-31T03:15:29.479Z,99.90
2018-05-31T03:17:58.301Z,99.90
2018-05-31T03:20:27.689Z,99.90
2018-05-31T03:22:56.263Z,99.90
2018-05-31T03:25:25.136Z,99.90
2018-05-31T03:27:54.052Z,99.90
2018-05-31T03:30:22.751Z,99.90
2018-05-31T03:32:52.748Z,99.90
2018-05-31T03:35:22.227Z,99.90
2018-05-31T03:37:51.235Z,99.90
2018-05-31T03:40:20.847Z,99.90
2018-05-31T03:42:49.905Z,99.90
2018-05-31T03:45:18.659Z,99.90
2018-05-31T03:47:47.256Z,99.90
2018-05-31T03:50:15.900Z,99.90
2018-05-31T03:52:44.601Z,99.90
2018-05-31T03:55:13.404Z,99.90
2018-05-31T03:57:42.138Z,99.90
2018-05-31T04:00:10.839Z,99.90
2018-05-31T04:02:39.649Z,99.90
2018-05-31T04:05:08.651Z,99.90
2018-05-31T04:07:37.215Z,99.90
2018-05-31T04:10:07.203Z,99.90
2018-05-31T04:12:36.785Z,99.90
2018-05-31T04:15:06.284Z,99.90
2018-05-31T04:17:35.067Z,99.90
2018-05-31T04:20:03.865Z,99.90
2018-05-31T04:22:32.689Z,99.90
2018-05-31T04:25:01.474Z,99.90
2018-05-31T04:27:30.317Z,99.90
2018-05-31T04:29:58.905Z,99.90
2018-05-31T04:32:27.717Z,99.90
2018-05-31T04:34:56.540Z,99.90
2018-05-31T04:37:25.280Z,99.90
2018-05-31T04:39:55.644Z,99.90
2018-05-31T04:42:25.683Z,99.90
2018-05-31T04:44:54.656Z,99.90
2018-05-31T04:47:23.210Z,99.90
2018-05-31T04:49:51.911Z,99.90
2018-05-31T04:52:20.468Z,99.90
2018-05-31T04:54:49.200Z,99.90
2018-05-31T04:57:18.678Z,99.90
2018-05-31T04:59:47.277Z,99.90
2018-05-31T05:02:16.004Z,99.90
2018-05-31T05:04:46.857Z,99.90
2018-05-31T05:07:15.508Z,99.90
2018-05-31T05:09:44.739Z,99.90
2018-05-31T05:12:14.192Z,99.90
2018-05-31T05:14:44.197Z,99.90
2018-05-31T05:17:13.748Z,99.90
2018-05-31T05:19:42.299Z,99.90
2018-05-31T05:22:11.496Z,99.90
2018-05-31T05:24:40.362Z,99.90
2018-05-31T05:27:09.835Z,99.90
2018-05-31T05:29:39.053Z,99.90
2018-05-31T05:32:07.864Z,99.90
2018-05-31T05:34:36.691Z,99.90
2018-05-31T05:37:05.549Z,99.90
2018-05-31T05:39:34.316Z,99.90
2018-05-31T05:42:03.515Z,99.90
2018-05-31T05:44:33.440Z,99.90
2018-05-31T05:47:02.780Z,99.90
2018-05-31T05:49:31.465Z,99.90
2018-05-31T05:52:00.398Z,99.90
2018-05-31T05:54:28.952Z,99.90
2018-05-31T05:56:58.634Z,99.90
2018-05-31T05:59:27.210Z,99.90
2018-05-31T06:01:56.019Z,99.90
2018-05-31T06:04:24.618Z,99.90
2018-05-31T06:06:54.190Z,99.90
2018-05-31T06:09:22.990Z,99.90
2018-05-31T06:11:52.104Z,99.90
2018-05-31T06:14:21.976Z,99.90
2018-05-31T06:16:51.776Z,99.90
2018-05-31T06:19:20.788Z,99.90
2018-05-31T06:21:50.589Z,99.90
2018-05-31T06:24:19.305Z,99.90
2018-05-31T06:26:48.111Z,99.90
2018-05-31T06:29:17.562Z,99.90
2018-05-31T06:31:46.240Z,99.90
2018-05-31T06:34:14.842Z,99.90
2018-05-31T06:36:43.457Z,99.90
2018-05-31T06:39:13.121Z,99.90
2018-05-31T06:41:43.092Z,99.90
2018-05-31T06:44:12.208Z,99.90
2018-05-31T06:46:42.162Z,99.90
2018-05-31T06:49:11.578Z,99.90
2018-05-31T06:51:41.007Z,99.90
2018-05-31T06:54:10.566Z,99.90
2018-05-31T06:56:39.383Z,99.90
2018-05-31T06:59:08.004Z,99.90
2018-05-31T07:01:37.614Z,99.90
2018-05-31T07:04:06.433Z,99.90
2018-05-31T07:06:35.143Z,99.90
2018-05-31T07:09:04.055Z,99.90
2018-05-31T07:11:33.168Z,99.90
2018-05-31T07:14:03.363Z,99.90
2018-05-31T07:16:33.037Z,99.90
2018-05-31T07:19:03.976Z,99.90
2018-05-31T07:21:36.253Z,99.90
2018-05-31T07:24:05.816Z,99.90
2018-05-31T07:26:35.048Z,99.90
2018-05-31T07:29:04.540Z,99.90
2018-05-31T07:31:33.265Z,99.90
2018-05-31T07:34:02.057Z,99.90
2018-05-31T07:36:31.770Z,99.90
2018-05-31T07:39:01.520Z,99.90
2018-05-31T07:41:30.597Z,99.90
2018-05-31T07:43:59.567Z,99.90
2018-05-31T07:46:29.617Z,99.90
2018-05-31T07:48:58.714Z,99.90
2018-05-31T07:51:27.742Z,99.90
2018-05-31T07:53:56.952Z,99.90
2018-05-31T07:56:25.711Z,99.90
2018-05-31T07:58:55.187Z,99.90
2018-05-31T08:01:24.105Z,99.90
2018-05-31T08:03:53.016Z,99.90
2018-05-31T08:06:22.244Z,99.90
2018-05-31T08:08:52.016Z,99.90
2018-05-31T08:11:22.032Z,98.20
2018-05-31T08:13:51.635Z,98.20
2018-05-31T08:16:20.446Z,96.10
2018-05-31T08:18:50.083Z,97.60
2018-05-31T08:21:18.882Z,97.70
2018-05-31T08:23:49.328Z,95.10
2018-05-31T08:26:17.934Z,95.10
2018-05-31T08:28:47.601Z,95.70
2018-05-31T08:31:16.477Z,93.50
2018-05-31T08:33:45.252Z,93.70
2018-05-31T08:36:15.755Z,91.70
2018-05-31T08:38:44.955Z,91.70
2018-05-31T08:41:13.828Z,92.50
2018-05-31T08:43:43.597Z,89.20
2018-05-31T08:46:13.713Z,89.20
2018-05-31T08:48:43.308Z,89.80
2018-05-31T08:51:12.184Z,89.80
2018-05-31T08:53:41.089Z,89.10
2018-05-31T08:56:10.012Z,84.30
2018-05-31T08:58:38.872Z,83.20
2018-05-31T09:01:08.340Z,66.80
2018-05-31T09:03:37.154Z,66.80
2018-05-31T09:06:06.702Z,65.50
2018-05-31T09:08:37.354Z,65.50
2018-05-31T09:11:06.343Z,65.30
2018-05-31T09:13:35.637Z,63.00
2018-05-31T09:16:05.454Z,60.80
2018-05-31T09:18:35.066Z,60.10
2018-05-31T09:21:03.933Z,60.10
2018-05-31T09:23:32.837Z,63.10
2018-05-31T09:26:01.981Z,55.40
2018-05-31T09:28:31.658Z,59.00
2018-05-31T09:31:00.917Z,62.50
2018-05-31T09:33:30.377Z,55.70
2018-05-31T09:35:59.815Z,53.00
2018-05-31T09:38:29.185Z,48.00
2018-05-31T09:40:58.884Z,49.70
2018-05-31T09:43:28.397Z,51.20
2018-05-31T09:45:57.142Z,51.10
2018-05-31T09:48:26.862Z,52.20
2018-05-31T09:50:55.488Z,50.00
2018-05-31T09:53:24.651Z,49.80
2018-05-31T09:55:53.988Z,49.30
2018-05-31T09:58:24.621Z,48.20
2018-05-31T10:00:55.027Z,48.10
2018-05-31T10:03:24.825Z,46.60
2018-05-31T10:05:54.329Z,47.00
2018-05-31T10:08:24.743Z,47.30
2018-05-31T10:10:53.574Z,47.30
2018-05-31T10:13:22.365Z,50.90
2018-05-31T10:15:51.163Z,49.40
2018-05-31T10:18:20.106Z,48.20
2018-05-31T10:20:49.740Z,51.30
2018-05-31T10:23:18.867Z,51.30
2018-05-31T10:25:48.092Z,51.30
2018-05-31T10:28:17.668Z,53.00
2018-05-31T10:30:46.991Z,53.00
2018-05-31T10:33:16.445Z,51.30
2018-05-31T10:35:45.618Z,50.00
2018-05-31T10:38:14.285Z,48.10
2018-05-31T10:40:43.859Z,47.20
2018-05-31T10:43:14.314Z,50.00
2018-05-31T10:45:43.027Z,52.90
2018-05-31T10:48:12.767Z,55.70
2018-05-31T10:50:42.380Z,56.50
2018-05-31T10:53:11.906Z,56.20
2018-05-31T10:55:42.091Z,54.50
2018-05-31T10:58:13.519Z,53.20
2018-05-31T11:00:42.990Z,52.20
2018-05-31T11:03:11.795Z,52.00
2018-05-31T11:05:40.569Z,53.50
2018-05-31T11:08:09.375Z,53.30
2018-05-31T11:10:38.091Z,49.60
2018-05-31T11:13:06.962Z,52.60
2018-05-31T11:15:37.577Z,47.30
2018-05-31T11:18:06.353Z,47.30
2018-05-31T11:20:35.028Z,48.10
2018-05-31T11:23:05.092Z,45.70
2018-05-31T11:25:33.829Z,45.80
2018-05-31T11:28:02.945Z,45.50
2018-05-31T11:30:32.260Z,47.40
2018-05-31T11:33:01.575Z,47.20
2018-05-31T11:35:30.586Z,46.90
2018-05-31T11:37:59.555Z,47.60
2018-05-31T11:40:29.386Z,48.80
2018-05-31T11:42:59.166Z,53.50
2018-05-31T11:45:27.896Z,53.40
2018-05-31T11:47:57.384Z,52.50
2018-05-31T11:50:26.304Z,49.50
2018-05-31T11:52:56.990Z,48.00
2018-05-31T11:55:25.754Z,48.60
2018-05-31T11:57:56.125Z,50.30
2018-05-31T12:00:25.678Z,49.70
2018-05-31T12:02:54.515Z,49.40
2018-05-31T12:05:23.980Z,50.00
2018-05-31T12:07:52.843Z,49.90
2018-05-31T12:10:23.520Z,45.90
2018-05-31T12:12:53.653Z,47.60
2018-05-31T12:15:23.307Z,46.70
2018-05-31T12:17:52.375Z,46.60
2018-05-31T12:20:21.442Z,45.60
2018-05-31T12:22:51.215Z,45.70
2018-05-31T12:25:21.401Z,45.10
2018-05-31T12:27:50.748Z,45.30
2018-05-31T12:30:20.609Z,44.30
2018-05-31T12:32:49.995Z,44.80
2018-05-31T12:35:18.811Z,43.90
2018-05-31T12:37:47.710Z,43.70
2018-05-31T12:40:17.889Z,43.10
2018-05-31T12:42:47.751Z,45.00
2018-05-31T12:45:17.367Z,48.90
2018-05-31T12:47:46.134Z,48.20
2018-05-31T12:50:15.525Z,48.00
2018-05-31T12:52:46.607Z,47.20
2018-05-31T12:55:16.580Z,47.10
2018-05-31T12:57:45.393Z,47.20
2018-05-31T13:00:14.993Z,48.60
2018-05-31T13:02:43.965Z,48.30
2018-05-31T13:05:12.747Z,50.00
2018-05-31T13:07:41.523Z,51.10
2018-05-31T13:10:11.559Z,48.90
2018-05-31T13:12:40.340Z,49.10
2018-05-31T13:15:10.475Z,47.50
2018-05-31T13:17:41.194Z,48.30
2018-05-31T13:20:11.208Z,48.90
2018-05-31T13:22:40.865Z,49.10
2018-05-31T13:25:09.970Z,49.40
2018-05-31T13:27:38.859Z,48.30
2018-05-31T13:30:08.835Z,47.10
2018-05-31T13:32:37.609Z,45.10
2018-05-31T13:35:06.516Z,45.20
2018-05-31T13:37:35.127Z,45.50
2018-05-31T13:40:03.805Z,44.40
2018-05-31T13:42:35.169Z,44.90
2018-05-31T13:45:04.740Z,44.80
2018-05-31T13:47:33.755Z,46.80
2018-05-31T13:50:03.018Z,48.20
2018-05-31T13:52:33.496Z,48.50
2018-05-31T13:55:02.421Z,49.10
2018-05-31T13:57:31.938Z,47.30
2018-05-31T14:00:01.789Z,48.60
2018-05-31T14:02:30.548Z,47.70
2018-05-31T14:04:59.311Z,49.80
2018-05-31T14:07:28.199Z,50.50
2018-05-31T14:09:57.077Z,53.40
2018-05-31T14:12:25.889Z,53.60
2018-05-31T14:14:55.258Z,52.60
2018-05-31T14:17:24.171Z,54.70
2018-05-31T14:19:59.533Z,54.20
2018-05-31T14:22:28.319Z,51.60
2018-05-31T14:24:58.079Z,51.00
2018-05-31T14:27:27.135Z,51.20
2018-05-31T14:29:56.571Z,50.60
2018-05-31T14:32:26.867Z,51.40
2018-05-31T14:34:56.412Z,51.40
2018-05-31T14:37:25.303Z,52.00
2018-05-31T14:39:54.227Z,52.80
2018-05-31T14:42:23.055Z,55.60
2018-05-31T14:44:53.166Z,56.90
2018-05-31T14:47:23.823Z,56.80
2018-05-31T14:49:53.115Z,56.00
2018-05-31T14:52:22.635Z,55.40
2018-05-31T14:54:52.648Z,56.00
2018-05-31T14:57:24.458Z,59.60
2018-05-31T14:59:54.374Z,59.00
2018-05-31T15:02:24.115Z,61.30
2018-05-31T15:04:52.964Z,61.10
2018-05-31T15:07:22.105Z,61.50
2018-05-31T15:09:52.607Z,61.60
2018-05-31T15:12:22.728Z,61.60
2018-05-31T15:14:52.590Z,60.70
2018-05-31T15:17:21.459Z,61.40
2018-05-31T15:19:51.169Z,62.40
2018-05-31T15:22:21.175Z,65.20
2018-05-31T15:24:50.558Z,65.00
2018-05-31T15:27:21.036Z,67.90
2018-05-31T15:29:51.595Z,69.00
2018-05-31T15:32:20.330Z,67.80
2018-05-31T15:34:49.168Z,67.10
2018-05-31T15:37:19.589Z,70.90
2018-05-31T15:39:49.789Z,70.80
2018-05-31T15:42:18.652Z,73.80
2018-05-31T15:44:48.924Z,75.70
2018-05-31T15:47:18.085Z,75.70
2018-05-31T15:49:47.080Z,72.80
2018-05-31T15:52:17.006Z,74.50
2018-05-31T15:54:45.820Z,78.20
2018-05-31T15:57:16.227Z,76.30
2018-05-31T15:59:45.781Z,78.80
2018-05-31T16:02:15.053Z,78.60
2018-05-31T16:04:45.034Z,80.00
2018-05-31T16:07:14.844Z,81.20
2018-05-31T16:09:45.486Z,83.90
2018-05-31T16:12:15.425Z,86.20
2018-05-31T16:14:45.000Z,88.90
2018-05-31T16:17:14.245Z,88.80
2018-05-31T16:19:43.528Z,88.90
2018-05-31T16:22:12.426Z,90.00
2018-05-31T16:24:41.927Z,90.90
2018-05-31T16:27:12.453Z,89.90
2018-05-31T16:29:41.897Z,89.70
2018-05-31T16:32:12.952Z,90.00
2018-05-31T16:34:43.264Z,92.10
2018-05-31T16:37:12.617Z,93.00
2018-05-31T16:39:42.334Z,93.90
2018-05-31T16:42:11.810Z,94.90
2018-05-31T16:44:40.903Z,94.60
2018-05-31T16:47:12.781Z,95.90
2018-05-31T16:49:41.644Z,95.50
2018-05-31T16:52:10.908Z,95.90
2018-05-31T16:54:40.000Z,95.90
2018-05-31T16:57:09.055Z,96.40
2018-05-31T16:59:39.293Z,98.00
2018-05-31T17:02:08.901Z,98.10
2018-05-31T17:04:38.422Z,98.20
2018-05-31T17:07:07.578Z,99.50
2018-05-31T17:09:37.120Z,99.40
2018-05-31T17:12:06.865Z,99.40
2018-05-31T17:14:38.788Z,99.90
2018-05-31T17:17:07.723Z,99.90
2018-05-31T17:19:37.586Z,99.90
2018-05-31T17:22:08.082Z,99.90
2018-05-31T17:24:38.187Z,99.90
2018-05-31T17:27:07.675Z,99.90
2018-05-31T17:29:36.785Z,99.90
2018-05-31T17:32:06.376Z,99.90
2018-05-31T17:34:35.670Z,99.90
2018-05-31T17:37:04.608Z,99.90
2018-05-31T17:39:33.779Z,99.90
2018-05-31T17:42:02.508Z,99.90
2018-05-31T17:44:31.430Z,99.90
2018-05-31T17:47:00.491Z,99.10
2018-05-31T17:49:30.217Z,98.90
2018-05-31T17:51:59.394Z,98.80
2018-05-31T17:54:29.045Z,99.30
2018-05-31T17:56:58.320Z,99.60
2018-05-31T17:59:28.231Z,99.60
2018-05-31T18:01:57.806Z,99.90
2018-05-31T18:04:26.717Z,99.90
2018-05-31T18:06:55.474Z,99.90
2018-05-31T18:09:24.491Z,99.90
2018-05-31T18:11:53.452Z,99.90
2018-05-31T18:14:23.445Z,99.90
2018-05-31T18:16:53.352Z,99.90
2018-05-31T18:19:22.871Z,99.90
2018-05-31T18:21:53.208Z,99.90
2018-05-31T18:24:22.940Z,99.90
2018-05-31T18:26:51.805Z,99.90
2018-05-31T18:29:21.664Z,99.90
2018-05-31T18:31:51.300Z,99.90
2018-05-31T18:34:20.974Z,99.90
2018-05-31T18:36:50.056Z,99.90
2018-05-31T18:39:18.945Z,99.90
2018-05-31T18:41:47.883Z,99.90
2018-05-31T18:44:16.738Z,99.90
2018-05-31T18:46:45.600Z,99.90
2018-05-31T18:49:16.070Z,99.90
2018-05-31T18:51:46.429Z,99.90
2018-05-31T18:54:15.482Z,99.90
2018-05-31T18:56:44.202Z,99.90
2018-05-31T18:59:13.360Z,99.90
2018-05-31T19:01:42.944Z,99.90
2018-05-31T19:04:12.627Z,99.90
2018-05-31T19:06:41.399Z,99.90
2018-05-31T19:09:15.598Z,99.90
2018-05-31T19:11:45.463Z,99.90
2018-05-31T19:14:14.776Z,99.90
2018-05-31T19:16:44.479Z,99.90
2018-05-31T19:19:19.459Z,99.90
2018-05-31T19:21:48.279Z,99.90
2018-05-31T19:24:22.747Z,99.90
2018-05-31T19:26:51.892Z,99.90
2018-05-31T19:29:21.180Z,99.90
2018-05-31T19:31:50.267Z,99.90
2018-05-31T19:34:20.217Z,99.90
2018-05-31T19:36:54.915Z,99.90
2018-05-31T19:39:23.625Z,99.90
2018-05-31T19:41:52.289Z,99.90
2018-05-31T19:44:26.751Z,99.90
2018-05-31T19:46:58.963Z,99.90
2018-05-31T19:49:29.118Z,99.90
2018-05-31T19:52:04.677Z,99.90
2018-05-31T19:54:34.709Z,99.90
2018-05-31T19:57:03.729Z,99.90
2018-05-31T19:59:38.061Z,99.90
2018-05-31T20:02:13.670Z,99.90
2018-05-31T20:04:42.640Z,99.90
2018-05-31T20:07:11.550Z,99.90
2018-05-31T20:09:41.665Z,99.90
2018-05-31T20:12:11.015Z,99.90
2018-05-31T20:14:40.379Z,99.90
2018-05-31T20:17:09.355Z,99.90
2018-05-31T20:19:38.368Z,99.90
2018-05-31T20:22:07.322Z,99.90
2018-05-31T20:24:36.614Z,99.90
2018-05-31T20:27:05.510Z,99.90
2018-05-31T20:29:35.073Z,99.90
2018-05-31T20:32:03.956Z,99.90
2018-05-31T20:34:33.016Z,99.90
2018-05-31T20:37:02.058Z,99.90
2018-05-31T20:39:31.007Z,99.90
2018-05-31T20:42:00.546Z,99.90
2018-05-31T20:44:30.467Z,99.90
2018-05-31T20:46:59.429Z,99.90
2018-05-31T20:49:29.382Z,99.90
2018-05-31T20:51:58.924Z,99.90
2018-05-31T20:54:28.060Z,99.90
2018-05-31T20:56:57.551Z,99.90
2018-05-31T20:59:27.663Z,99.90
2018-05-31T21:01:56.976Z,99.90
2018-05-31T21:04:26.033Z,99.90
2018-05-31T21:06:56.300Z,99.90
2018-05-31T21:09:25.735Z,99.90
2018-05-31T21:11:55.939Z,99.90
2018-05-31T21:14:25.289Z,99.90
2018-05-31T21:16:54.296Z,99.90
2018-05-31T21:19:23.339Z,99.90
2018-05-31T21:21:53.054Z,99.90
2018-05-31T21:24:23.214Z,99.90
2018-05-31T21:26:52.289Z,99.90
2018-05-31T21:29:21.009Z,99.90
2018-05-31T21:31:50.092Z,99.90
2018-05-31T21:34:18.865Z,99.90
2018-05-31T21:36:48.976Z,99.90
2018-05-31T21:39:18.962Z,99.90
2018-05-31T21:41:48.868Z,99.90
2018-05-31T21:44:18.082Z,99.90
2018-05-31T21:46:46.758Z,99.90
2018-05-31T21:49:16.827Z,99.90
2018-05-31T21:51:45.616Z,99.90
2018-05-31T21:54:14.441Z,99.90
2018-05-31T21:56:43.493Z,99.90
2018-05-31T21:59:13.539Z,99.90
2018-05-31T22:01:42.305Z,99.90
2018-05-31T22:04:12.153Z,99.90
2018-05-31T22:06:42.323Z,99.90
2018-05-31T22:09:12.552Z,99.90
2018-05-31T22:11:41.715Z,99.90
2018-05-31T22:14:10.531Z,99.90
2018-05-31T22:16:39.766Z,99.90
2018-05-31T22:19:08.574Z,99.90
2018-05-31T22:21:37.838Z,99.90
2018-05-31T22:24:06.770Z,99.90
2018-05-31T22:26:36.602Z,99.90
2018-05-31T22:29:06.662Z,99.90
2018-05-31T22:31:35.597Z,99.90
2018-05-31T22:34:05.790Z,99.90
2018-05-31T22:36:36.765Z,99.90
2018-05-31T22:39:06.331Z,99.90
2018-05-31T22:41:35.133Z,99.90
2018-05-31T22:44:03.804Z,99.90
2018-05-31T22:46:33.566Z,99.90
2018-05-31T22:49:02.359Z,99.90
2018-05-31T22:51:32.254Z,99.90
2018-05-31T22:54:02.051Z,99.90
2018-05-31T22:56:30.855Z,99.90
2018-05-31T22:58:59.564Z,99.90
2018-05-31T23:01:28.243Z,99.90
2018-05-31T23:03:58.689Z,99.90
2018-05-31T23:06:28.762Z,99.90
2018-05-31T23:08:57.566Z,99.90
2018-05-31T23:11:26.369Z,99.90
2018-05-31T23:13:55.184Z,99.90
2018-05-31T23:16:24.775Z,99.90
2018-05-31T23:18:53.623Z,99.90
2018-05-31T23:21:22.391Z,99.90
2018-05-31T23:23:52.163Z,99.90
2018-05-31T23:26:20.975Z,99.90
2018-05-31T23:28:50.274Z,99.90
2018-05-31T23:31:19.821Z,99.90
2018-05-31T23:33:49.633Z,99.90
2018-05-31T23:36:19.108Z,99.90
2018-05-31T23:38:47.891Z,99.90
2018-05-31T23:41:16.433Z,99.90
2018-05-31T23:43:45.203Z,99.90
2018-05-31T23:46:14.320Z,99.90
2018-05-31T23:48:43.099Z,99.90
2018-05-31T23:51:12.553Z,99.90
2018-05-31T23:53:41.339Z,99.90
2018-05-31T23:56:10.720Z,99.90
2018-05-31T23:58:39.495Z,99.90
